Time;durP1;ratioP1;P1;durP2;ratioP2;P2;SDS_P1;SDS_P2;PMS_P1;PMS_P2;Temp;Humidity;BMP_temperature;BMP_pressure;BME280_temperature;BME280_humidity;BME280_pressure;Samples;Min_cycle;Max_cycle;Signal;HPM_P1;HPM_P2
2022/04/10 00:02:02;;;;;;;9.50;4.78;;;;;;;5.40;65.12;100877.97;4035590;29;20050;-58
2022/04/10 00:04:06;;;;;;;10.20;5.30;;;;;;;5.36;65.23;100883.81;4042497;29;20043;-59
2022/04/10 00:06:09;;;;;;;7.73;5.23;;;;;;;5.33;65.01;100884.59;4040303;29;20131;-61
2022/04/10 00:08:12;;;;;;;8.93;3.72;;;;;;;5.31;65.21;100885.31;4026691;29;20041;-59
2022/04/10 00:10:15;;;;;;;8.52;3.03;;;;;;;5.28;65.55;100883.50;4034744;29;20112;-59
2022/04/10 00:12:19;;;;;;;6.82;3.10;;;;;;;5.28;65.12;100891.22;4025557;29;20128;-59
2022/04/10 00:14:22;;;;;;;8.98;3.05;;;;;;;5.22;64.82;100888.41;4028789;29;20065;-59
2022/04/10 00:16:25;;;;;;;7.20;2.55;;;;;;;5.22;64.90;100885.81;4031628;29;20551;-59
2022/04/10 00:18:27;;;;;;;5.00;2.10;;;;;;;5.15;64.60;100881.22;4031331;29;20048;-59
2022/04/10 00:20:31;;;;;;;6.40;2.15;;;;;;;5.07;65.05;100881.75;4032969;29;20037;-58
2022/04/10 00:22:40;;;;;;;5.93;2.47;;;;;;;4.99;65.13;100898.56;4025698;29;20033;-59
2022/04/10 00:24:43;;;;;;;4.13;2.08;;;;;;;4.88;65.33;100900.69;4032431;29;20180;-59
2022/04/10 00:26:46;;;;;;;4.38;2.53;;;;;;;4.76;65.46;100897.59;4030378;29;20136;-59
2022/04/10 00:28:51;;;;;;;7.28;3.22;;;;;;;4.69;65.50;100904.13;4030501;29;20135;-58
2022/04/10 00:30:55;;;;;;;6.10;3.05;;;;;;;4.69;65.88;100892.97;4030501;29;20065;-59
2022/04/10 00:32:59;;;;;;;3.65;2.53;;;;;;;4.64;65.76;100895.31;4033412;29;20049;-59
2022/04/10 00:35:02;;;;;;;5.95;2.85;;;;;;;4.62;65.85;100891.78;4033498;29;20116;-59
2022/04/10 00:37:05;;;;;;;5.43;2.60;;;;;;;4.63;65.65;100892.66;4029152;29;20187;-59
2022/04/10 00:39:08;;;;;;;4.82;2.67;;;;;;;4.63;65.31;100883.25;4028218;29;20041;-59
2022/04/10 00:41:11;;;;;;;4.10;2.35;;;;;;;4.68;65.63;100886.03;4029335;29;20045;-59
2022/04/10 00:43:15;;;;;;;5.82;2.70;;;;;;;4.65;65.93;100883.34;4027098;29;20041;-59
2022/04/10 00:45:21;;;;;;;6.55;2.55;;;;;;;4.75;65.34;100887.22;4031891;29;20048;-59
2022/04/10 00:47:23;;;;;;;9.93;2.80;;;;;;;4.72;65.41;100893.09;4028101;29;20037;-59
2022/04/10 00:49:26;;;;;;;3.47;2.53;;;;;;;4.79;65.20;100894.22;4032651;29;20037;-59
2022/04/10 00:51:41;;;;;;;3.90;2.33;;;;;;;4.89;65.35;100889.56;4034847;29;20128;-59
2022/04/10 00:53:45;;;;;;;4.45;2.45;;;;;;;4.97;65.29;100899.34;4031379;29;20043;-59
2022/04/10 00:55:48;;;;;;;3.38;2.40;;;;;;;4.99;65.31;100892.56;4031101;29;20208;-59
2022/04/10 00:57:51;;;;;;;4.75;2.45;;;;;;;4.98;65.20;100895.94;4029435;29;20430;-59
2022/04/10 00:59:53;;;;;;;6.18;2.72;;;;;;;4.99;65.20;100892.56;4026968;29;20500;-59
2022/04/10 01:01:58;;;;;;;4.53;2.33;;;;;;;4.89;64.79;100897.31;4032370;29;20041;-59
2022/04/10 01:04:17;;;;;;;5.75;2.78;;;;;;;4.78;65.22;100898.50;4028001;29;20515;-59
2022/04/10 01:06:21;;;;;;;5.78;3.03;;;;;;;4.71;65.13;100897.34;4016061;29;20136;-59
2022/04/10 01:08:24;;;;;;;6.32;2.80;;;;;;;4.63;65.58;100897.81;4030367;29;20046;-59
2022/04/10 01:10:27;;;;;;;6.60;2.83;;;;;;;4.63;65.74;100897.81;4023821;29;20133;-59
2022/04/10 01:12:33;;;;;;;6.72;3.13;;;;;;;4.69;65.58;100898.13;4034765;29;20047;-59
2022/04/10 01:14:41;;;;;;;4.95;2.75;;;;;;;4.69;65.50;100898.13;4030816;29;20049;-59
2022/04/10 01:16:47;;;;;;;4.68;3.38;;;;;;;4.63;65.80;100895.25;4045132;29;20073;-59
2022/04/10 01:18:52;;;;;;;6.95;2.80;;;;;;;4.66;65.34;100904.00;4017755;29;20461;-59
2022/04/10 01:20:55;;;;;;;6.68;4.13;;;;;;;4.63;65.38;100897.81;4031376;29;20033;-59
2022/04/10 01:23:01;;;;;;;7.28;2.75;;;;;;;4.62;65.06;100896.94;4028274;29;20045;-59
2022/04/10 01:25:06;;;;;;;7.53;3.80;;;;;;;4.52;65.99;100905.94;4046360;29;20045;-59
2022/04/10 01:27:12;;;;;;;4.50;3.13;;;;;;;4.51;65.65;100906.78;4013612;29;20148;-59
2022/04/10 01:29:15;;;;;;;7.20;3.13;;;;;;;4.58;65.68;100907.03;4044531;29;20037;-59
2022/04/10 01:31:18;;;;;;;6.40;3.33;;;;;;;4.62;65.86;100907.25;4042792;29;20068;-59
2022/04/10 01:33:21;;;;;;;10.25;3.80;;;;;;;4.68;65.26;100904.94;4035825;29;20072;-59
2022/04/10 01:35:27;;;;;;;5.72;2.95;;;;;;;4.74;65.57;100911.19;4030687;29;20543;-59
2022/04/10 01:37:32;;;;;;;4.78;2.75;;;;;;;4.73;65.71;100905.13;4030327;29;20068;-59
2022/04/10 01:39:37;;;;;;;5.57;3.15;;;;;;;4.75;65.79;100905.25;4033595;29;20513;-59
2022/04/10 01:41:41;;;;;;;7.20;3.90;;;;;;;4.71;65.68;100896.47;4037129;29;20474;-59
2022/04/10 01:43:47;;;;;;;6.70;3.70;;;;;;;4.72;65.91;100898.25;4035164;29;20124;-59
2022/04/10 01:45:50;;;;;;;5.32;3.28;;;;;;;4.69;65.83;100900.69;4041129;29;20530;-59
2022/04/10 01:47:53;;;;;;;6.35;3.28;;;;;;;4.64;66.03;100900.47;4034109;29;20045;-59
2022/04/10 01:49:57;;;;;;;7.72;3.45;;;;;;;4.59;65.79;100907.09;4028184;29;20493;-59
2022/04/10 01:52:00;;;;;;;6.93;3.15;;;;;;;4.61;65.68;100902.03;4028693;29;20038;-59
2022/04/10 01:54:03;;;;;;;6.30;3.28;;;;;;;4.54;65.72;100908.56;4035121;29;20090;-59
2022/04/10 01:56:09;;;;;;;7.70;3.35;;;;;;;4.55;65.22;100907.78;4035915;29;20491;-59
2022/04/10 01:58:12;;;;;;;7.53;3.78;;;;;;;4.55;65.57;100912.94;4030516;29;20105;-59
2022/04/10 02:00:15;;;;;;;4.75;2.97;;;;;;;4.54;65.50;100912.06;4034786;29;20470;-59
2022/04/10 02:02:20;;;;;;;6.80;3.15;;;;;;;4.47;65.94;100911.72;4028753;29;20715;-59
2022/04/10 02:04:28;;;;;;;6.75;3.42;;;;;;;4.47;66.07;100912.59;4035572;29;20519;-58
2022/04/10 02:06:35;;;;;;;6.30;3.42;;;;;;;4.49;65.87;100910.06;4033592;29;20051;-58
2022/04/10 02:08:41;;;;;;;9.53;3.50;;;;;;;4.45;65.97;100911.59;4036568;29;20119;-58
2022/04/10 02:10:45;;;;;;;4.95;3.38;;;;;;;4.46;66.17;100918.53;4033981;29;20061;-58
2022/04/10 02:12:49;;;;;;;7.30;4.00;;;;;;;4.42;66.10;100918.31;4039841;29;20068;-58
2022/04/10 02:14:52;;;;;;;6.13;3.75;;;;;;;4.39;66.64;100913.91;4034174;29;20048;-58
2022/04/10 02:16:55;;;;;;;6.85;3.55;;;;;;;4.41;66.43;100912.31;4044011;29;20305;-59
2022/04/10 02:18:58;;;;;;;8.05;3.40;;;;;;;4.34;66.66;100910.25;4041992;29;20100;-58
2022/04/10 02:21:01;;;;;;;8.48;3.55;;;;;;;4.29;66.54;100925.50;4033932;29;20128;-58
2022/04/10 02:23:04;;;;;;;10.18;3.38;;;;;;;4.28;66.47;100923.72;4044848;29;20109;-58
2022/04/10 02:25:08;;;;;;;7.07;3.80;;;;;;;4.22;66.36;100920.84;4033317;29;20132;-58
2022/04/10 02:27:11;;;;;;;7.18;3.72;;;;;;;4.16;66.14;100916.31;4042594;29;20115;-58
2022/04/10 02:29:15;;;;;;;5.07;3.42;;;;;;;4.19;66.57;100915.53;4034042;29;20041;-58
2022/04/10 02:31:18;;;;;;;6.30;3.42;;;;;;;4.18;66.47;100914.66;4034116;29;20039;-58
2022/04/10 02:33:21;;;;;;;6.18;3.15;;;;;;;4.23;66.88;100916.59;4030676;29;20420;-58
2022/04/10 02:35:24;;;;;;;7.78;3.55;;;;;;;4.19;66.60;100915.53;4034755;29;20044;-58
2022/04/10 02:37:27;;;;;;;6.88;3.22;;;;;;;4.21;66.55;100921.66;4036295;29;20136;-58
2022/04/10 02:39:30;;;;;;;6.18;3.70;;;;;;;4.19;66.52;100926.72;4033940;29;20527;-58
2022/04/10 02:41:33;;;;;;;4.60;3.58;;;;;;;4.23;66.36;100921.72;4035695;29;20040;-58
2022/04/10 02:43:36;;;;;;;8.82;4.03;;;;;;;4.21;66.26;100924.22;4036096;29;20717;-58
2022/04/10 02:45:42;;;;;;;6.82;4.00;;;;;;;4.19;66.34;100921.59;4034662;29;20051;-58
2022/04/10 02:47:45;;;;;;;;;;;;;;;4.04;66.48;100919.97;4031425;29;20041;-58
2022/04/10 02:49:48;;;;;;;6.65;3.47;;;;;;;4.05;67.46;100925.19;4013011;29;19980;-59
2022/04/10 02:51:51;;;;;;;7.50;3.47;;;;;;;4.05;66.98;100926.88;4049257;29;20044;-58
2022/04/10 02:53:54;;;;;;;7.53;3.60;;;;;;;4.04;67.00;100926.00;4014792;29;20042;-58
2022/04/10 02:55:57;;;;;;;10.10;4.63;;;;;;;4.04;67.20;100931.13;4026428;29;20044;-58
2022/04/10 02:58:00;;;;;;;7.82;4.43;;;;;;;4.02;67.07;100927.63;4034108;29;20124;-58
2022/04/10 03:00:05;;;;;;;6.60;3.53;;;;;;;4.00;67.62;100937.84;4023261;29;20551;-58
2022/04/10 03:02:10;;;;;;;7.38;3.85;;;;;;;3.98;67.58;100933.41;4028029;29;20037;-58
2022/04/10 03:04:13;;;;;;;6.43;3.97;;;;;;;3.92;67.49;100928.84;4033079;29;20503;-58
2022/04/10 03:06:16;;;;;;;6.18;3.72;;;;;;;3.91;67.52;100928.78;4024115;29;20080;-58
2022/04/10 03:08:21;;;;;;;6.72;4.00;;;;;;;3.92;67.65;100935.69;4034349;29;20049;-58
2022/04/10 03:10:25;;;;;;;7.63;4.25;;;;;;;3.87;67.55;100937.16;4041826;29;20055;-58
2022/04/10 03:12:31;;;;;;;9.38;4.43;;;;;;;3.85;67.63;100944.78;4026326;29;20045;-58
2022/04/10 03:14:34;;;;;;;7.40;4.15;;;;;;;3.83;67.42;100939.56;4023649;29;20558;-58
2022/04/10 03:16:37;;;;;;;7.25;4.20;;;;;;;3.82;67.37;100942.94;4037882;29;20037;-58
2022/04/10 03:18:42;;;;;;;6.63;3.97;;;;;;;3.86;67.42;100940.56;4038779;29;20032;-58
2022/04/10 03:20:45;;;;;;;;;;;;;;;3.74;67.62;100945.94;4028062;29;20065;-58
2022/04/10 03:22:48;;;;;;;8.88;4.47;;;;;;;3.78;67.20;100948.78;4025023;29;19924;-58
2022/04/10 03:24:51;;;;;;;8.48;4.15;;;;;;;3.82;67.14;100942.94;4034008;29;20051;-58
2022/04/10 03:26:55;;;;;;;8.15;4.18;;;;;;;3.86;67.06;100937.97;4034951;29;20033;-58
2022/04/10 03:28:57;;;;;;;7.25;3.85;;;;;;;3.88;67.31;100944.06;4025709;29;20037;-58
2022/04/10 03:31:00;;;;;;;9.18;4.57;;;;;;;3.86;67.24;100937.97;4025345;29;20078;-58
2022/04/10 03:33:05;;;;;;;7.93;4.63;;;;;;;3.83;67.57;100943.84;4041644;29;20048;-58
2022/04/10 03:35:10;;;;;;;6.90;4.53;;;;;;;3.87;67.39;100950.00;4043477;29;20399;-58
2022/04/10 03:37:14;;;;;;;7.85;4.80;;;;;;;3.83;67.48;100955.00;4029720;29;20132;-58
2022/04/10 03:39:16;;;;;;;9.52;4.50;;;;;;;3.83;67.32;100956.69;4035244;29;20037;-58
2022/04/10 03:41:19;;;;;;;8.45;4.15;;;;;;;3.78;67.43;100959.06;4029690;29;20052;-58
2022/04/10 03:43:22;;;;;;;10.38;4.40;;;;;;;3.77;67.66;100959.84;4025716;29;20037;-58
2022/04/10 03:45:26;;;;;;;8.82;5.07;;;;;;;3.74;67.52;100963.94;4028290;29;20037;-58
2022/04/10 03:47:30;;;;;;;8.18;4.80;;;;;;;3.71;67.72;100966.38;4034502;29;20096;-58
2022/04/10 03:49:33;;;;;;;9.20;4.60;;;;;;;3.69;67.37;100963.72;4015837;29;20503;-58
2022/04/10 03:51:39;;;;;;;;;;;;;;;3.52;68.86;100972.25;4032947;29;20085;-58
2022/04/10 03:53:42;;;;;;;9.55;4.75;;;;;;;3.57;68.19;100973.41;4038524;29;19927;-58
2022/04/10 03:55:47;;;;;;;9.57;4.60;;;;;;;3.54;68.95;100978.38;4038141;29;20128;-58
2022/04/10 03:57:52;;;;;;;11.65;4.90;;;;;;;3.55;67.96;100981.03;4022117;29;20086;-58
2022/04/10 03:59:55;;;;;;;7.70;3.88;;;;;;;3.58;68.75;100980.31;4025634;29;20124;-58
2022/04/10 04:01:58;;;;;;;12.50;5.70;;;;;;;3.54;68.39;100986.97;4029486;29;20033;-59
2022/04/10 04:04:02;;;;;;;7.90;4.90;;;;;;;3.56;68.79;100982.78;4031252;29;20037;-58
2022/04/10 04:06:05;;;;;;;9.55;4.93;;;;;;;3.56;69.33;100987.03;4026654;29;20045;-58
2022/04/10 04:08:10;;;;;;;8.52;4.88;;;;;;;3.59;69.30;100987.19;4030151;29;20049;-58
2022/04/10 04:10:13;;;;;;;9.02;5.40;;;;;;;3.57;69.20;100993.97;4025588;29;20049;-58
2022/04/10 04:12:16;;;;;;;7.10;4.65;;;;;;;3.58;69.83;100995.75;4042817;29;20051;-58
2022/04/10 04:14:20;;;;;;;10.45;5.40;;;;;;;3.60;69.42;100988.97;4027102;29;20037;-58
2022/04/10 04:16:23;;;;;;;8.65;4.78;;;;;;;3.56;69.34;100998.19;4026161;29;20480;-58
2022/04/10 04:18:26;;;;;;;7.13;4.72;;;;;;;3.55;69.24;101008.41;4041099;29;20041;-58
2022/04/10 04:20:30;;;;;;;8.05;5.15;;;;;;;3.51;69.37;101004.81;4041526;29;20045;-58
2022/04/10 04:22:35;;;;;;;8.07;5.15;;;;;;;3.47;69.80;101005.44;4028895;29;20149;-58
2022/04/10 04:24:40;;;;;;;9.87;5.63;;;;;;;3.43;69.29;101012.13;4010254;29;20045;-58
2022/04/10 04:26:44;;;;;;;8.32;5.30;;;;;;;3.39;69.83;101014.44;4037528;29;20040;-58
2022/04/10 04:28:47;;;;;;;12.80;5.72;;;;;;;3.34;70.16;101021.91;4042505;29;20062;-58
2022/04/10 04:30:50;;;;;;;8.27;5.32;;;;;;;3.31;70.00;101024.31;4027085;29;20036;-59
2022/04/10 04:32:56;;;;;;;11.55;5.78;;;;;;;3.31;70.74;101022.66;4029270;29;20041;-58
2022/04/10 04:34:59;;;;;;;8.60;4.90;;;;;;;3.34;70.42;101027.06;4034381;29;20037;-59
2022/04/10 04:37:04;;;;;;;7.72;5.25;;;;;;;3.37;70.30;101027.22;4032858;29;20053;-58
2022/04/10 04:39:08;;;;;;;9.30;5.65;;;;;;;3.38;70.15;101028.13;4039023;29;20041;-58
2022/04/10 04:41:12;;;;;;;11.45;5.97;;;;;;;3.35;70.60;101028.84;4027044;29;20045;-58
2022/04/10 04:43:16;;;;;;;7.72;5.53;;;;;;;3.39;70.95;101023.06;4033603;29;20041;-58
2022/04/10 04:45:20;;;;;;;11.55;5.57;;;;;;;3.45;70.64;101035.34;4036721;29;20138;-58
2022/04/10 04:47:56;;;;;;;10.18;5.78;;;;;;;3.45;70.38;101036.22;4029691;29;20049;-58
2022/04/10 04:49:59;;;;;;;9.55;5.78;;;;;;;3.42;70.40;101038.63;4047093;29;20139;-58
2022/04/10 04:52:06;;;;;;;13.52;6.32;;;;;;;3.44;70.80;101044.72;4014198;29;20060;-58
2022/04/10 04:54:09;;;;;;;8.02;5.55;;;;;;;3.46;70.44;101045.69;4024130;29;20045;-58
2022/04/10 04:56:15;;;;;;;7.80;5.25;;;;;;;3.51;70.71;101050.22;4043983;29;20064;-58
2022/04/10 04:58:19;;;;;;;8.63;5.10;;;;;;;3.37;71.14;101039.19;4023656;29;20069;-58
2022/04/10 05:00:22;;;;;;;8.48;5.20;;;;;;;3.36;70.36;101047.69;4032895;29;20135;-58
2022/04/10 05:02:31;;;;;;;9.82;5.97;;;;;;;3.42;70.91;101050.59;4040827;29;20044;-58
2022/04/10 05:04:34;;;;;;;11.38;5.97;;;;;;;3.48;70.89;101051.78;4029703;29;20087;-58
2022/04/10 05:06:38;;;;;;;10.32;5.97;;;;;;;3.54;70.99;101056.38;4028597;29;20049;-58
2022/04/10 05:08:42;;;;;;;9.50;5.45;;;;;;;3.63;70.66;101056.84;4038696;29;20072;-59
2022/04/10 05:10:47;;;;;;;12.75;5.88;;;;;;;3.69;70.88;101061.44;4042369;29;20044;-58
2022/04/10 05:12:53;;;;;;;11.70;6.00;;;;;;;3.72;70.13;101065.84;4043663;29;20033;-59
2022/04/10 05:15:00;;;;;;;10.88;5.72;;;;;;;3.71;70.33;101075.25;4022080;29;20053;-59
2022/04/10 05:17:04;;;;;;;9.87;6.20;;;;;;;3.72;70.19;101079.59;4033622;29;20048;-59
2022/04/10 05:19:11;;;;;;;9.68;6.05;;;;;;;3.71;70.26;101085.56;4030500;29;20306;-58
2022/04/10 05:21:15;;;;;;;9.73;6.10;;;;;;;3.73;71.07;101085.63;4036892;29;20144;-59
2022/04/10 05:23:21;;;;;;;8.88;5.80;;;;;;;3.76;71.00;101094.38;4036427;29;20362;-59
2022/04/10 05:25:37;;;;;;;8.70;5.38;;;;;;;3.82;71.08;101091.22;4039889;29;20036;-59
2022/04/10 05:27:43;;;;;;;9.25;5.95;;;;;;;3.85;70.50;101093.97;4028100;29;20050;-59
2022/04/10 05:29:47;;;;;;;12.70;5.70;;;;;;;3.92;70.12;101096.06;4021079;29;20098;-59
2022/04/10 05:31:50;;;;;;;9.82;6.30;;;;;;;3.88;70.07;101103.53;4035322;29;20415;-59
2022/04/10 05:33:53;;;;;;;9.10;6.20;;;;;;;3.89;70.35;101101.03;4031751;29;20406;-59
2022/04/10 05:35:57;;;;;;;9.43;5.75;;;;;;;3.88;70.37;101099.25;4020349;29;20105;-59
2022/04/10 05:38:01;;;;;;;8.77;5.50;;;;;;;3.87;70.57;101107.81;4029356;29;20554;-59
2022/04/10 05:40:05;;;;;;;8.23;5.55;;;;;;;3.92;70.68;101110.59;4034971;29;20293;-58
2022/04/10 05:42:10;;;;;;;8.50;5.43;;;;;;;3.91;70.57;101108.84;4034805;29;20520;-58
2022/04/10 05:44:13;;;;;;;11.50;5.13;;;;;;;3.91;70.88;101125.13;4035128;29;20460;-58
2022/04/10 05:46:17;;;;;;;9.35;6.07;;;;;;;4.00;70.54;101117.00;4035617;29;20037;-58
2022/04/10 05:48:25;;;;;;;10.25;7.03;;;;;;;4.09;70.65;101120.06;4030700;29;20059;-58
2022/04/10 05:50:28;;;;;;;8.77;5.82;;;;;;;4.17;70.69;101128.19;4026479;29;20045;-59
2022/04/10 05:52:31;;;;;;;11.38;5.50;;;;;;;4.15;70.05;101125.53;4043813;29;20048;-58
2022/04/10 05:54:35;;;;;;;8.48;5.97;;;;;;;4.18;70.43;101124.81;4044622;29;20403;-58
2022/04/10 05:56:39;;;;;;;8.13;6.10;;;;;;;4.16;70.70;101132.44;4040969;29;20071;-58
2022/04/10 05:58:41;;;;;;;11.18;5.80;;;;;;;4.21;70.60;101135.25;4033190;29;20045;-59
2022/04/10 06:00:45;;;;;;;8.43;5.30;;;;;;;4.25;70.53;101131.13;4017950;29;20064;-58
2022/04/10 06:02:54;;;;;;;11.80;5.63;;;;;;;4.27;70.20;101137.25;4034413;29;20099;-58
2022/04/10 06:04:57;;;;;;;10.20;5.60;;;;;;;4.28;69.75;101132.19;4047215;29;20047;-59
2022/04/10 06:07:00;;;;;;;9.82;5.82;;;;;;;4.34;69.83;101135.06;4027082;29;20673;-58
2022/04/10 06:09:15;;;;;;;8.55;5.10;;;;;;;4.34;69.99;101136.75;4047424;29;20124;-58
2022/04/10 06:11:19;;;;;;;11.10;6.20;;;;;;;4.36;69.81;101140.28;4034347;29;20415;-58
2022/04/10 06:13:22;;;;;;;10.23;7.07;;;;;;;4.36;69.53;101137.72;4029674;29;20439;-58
2022/04/10 06:15:32;;;;;;;7.35;4.95;;;;;;;4.35;69.58;101134.25;4033292;29;20523;-58
2022/04/10 06:17:35;;;;;;;9.23;5.90;;;;;;;4.40;70.04;101141.34;4030245;29;20096;-58
2022/04/10 06:19:40;;;;;;;8.80;5.15;;;;;;;4.43;69.59;101141.50;4042632;29;20131;-58
2022/04/10 06:21:48;;;;;;;11.15;6.25;;;;;;;4.39;69.84;101143.00;4034045;29;20097;-59
2022/04/10 06:23:51;;;;;;;8.10;4.85;;;;;;;4.46;69.33;101146.78;4033659;29;20114;-58
2022/04/10 06:26:01;;;;;;;12.77;5.38;;;;;;;4.42;69.65;101156.03;4033290;29;20488;-58
2022/04/10 06:28:05;;;;;;;9.40;5.57;;;;;;;4.44;70.06;101149.28;4030939;29;20447;-58
2022/04/10 06:30:15;;;;;;;9.90;5.63;;;;;;;4.47;69.51;101157.16;4030758;29;20110;-58
2022/04/10 06:32:26;;;;;;;9.45;6.32;;;;;;;4.48;69.00;101153.78;4029297;29;20124;-58
2022/04/10 06:34:31;;;;;;;8.70;5.78;;;;;;;4.55;68.93;101162.69;4037407;29;20045;-58
2022/04/10 06:36:38;;;;;;;8.52;5.97;;;;;;;4.59;69.04;101156.88;4035299;29;20093;-58
2022/04/10 06:38:49;;;;;;;9.48;5.95;;;;;;;4.60;69.06;101156.09;4017886;29;20565;-58
2022/04/10 06:40:57;;;;;;;10.15;6.43;;;;;;;4.66;69.33;101151.22;4034118;29;20041;-58
2022/04/10 06:43:02;;;;;;;14.27;6.10;;;;;;;4.68;69.23;101151.31;4037773;29;20044;-58
2022/04/10 06:45:33;;;;;;;13.73;6.45;;;;;;;4.63;68.68;101160.47;4027682;29;20590;-58
2022/04/10 06:47:45;;;;;;;10.27;5.20;;;;;;;4.63;68.86;101156.22;4031483;29;20458;-58
2022/04/10 06:49:48;;;;;;;7.90;5.30;;;;;;;4.62;68.49;101162.19;4024057;29;20057;-58
2022/04/10 06:51:52;;;;;;;8.85;6.13;;;;;;;4.68;68.53;101164.19;4039440;29;20040;-58
2022/04/10 06:54:02;;;;;;;8.95;5.40;;;;;;;4.66;68.68;101161.53;4039191;29;20037;-58
2022/04/10 06:56:05;;;;;;;9.13;5.60;;;;;;;4.72;68.51;101160.97;4008579;29;20080;-58
2022/04/10 06:58:13;;;;;;;9.52;6.07;;;;;;;4.74;68.42;101164.47;4032562;29;20045;-58
2022/04/10 07:00:17;;;;;;;7.18;5.70;;;;;;;4.76;68.29;101164.56;4049553;29;20040;-58
2022/04/10 07:02:23;;;;;;;8.50;5.15;;;;;;;4.77;68.56;101169.78;4033298;29;20499;-58
2022/04/10 07:04:29;;;;;;;8.95;5.60;;;;;;;4.81;68.62;101166.53;4020341;29;20477;-59
2022/04/10 07:06:34;;;;;;;10.25;4.72;;;;;;;4.81;68.76;101166.53;4013315;29;20416;-60
2022/04/10 07:08:39;;;;;;;10.45;5.53;;;;;;;4.84;68.94;101166.69;4022776;29;20132;-60
2022/04/10 07:10:43;;;;;;;10.63;6.38;;;;;;;4.86;68.84;101174.50;4023695;29;20210;-60
2022/04/10 07:12:46;;;;;;;9.25;6.50;;;;;;;4.94;68.13;101182.63;4031340;29;20076;-60
2022/04/10 07:14:49;;;;;;;11.77;6.25;;;;;;;4.97;68.04;101185.34;4030721;29;20104;-59
2022/04/10 07:16:51;;;;;;;9.00;6.07;;;;;;;4.98;68.42;101189.66;4028209;29;20132;-62
2022/04/10 07:18:54;;;;;;;8.45;5.70;;;;;;;4.94;68.45;101183.50;4021149;29;20515;-59
2022/04/10 07:21:00;;;;;;;12.07;6.50;;;;;;;4.99;68.75;101189.75;4029286;29;20044;-59
2022/04/10 07:25:25;;;;;;;10.15;6.22;;;;;;;4.89;67.93;101196.16;4030199;29;20033;-60
2022/04/10 07:27:29;;;;;;;10.02;5.82;;;;;;;4.74;68.45;101204.81;4041436;29;20064;-60
2022/04/10 07:29:45;;;;;;;11.38;5.78;;;;;;;4.76;68.71;101206.66;4028739;29;20053;-60
2022/04/10 07:31:51;;;;;;;10.63;5.70;;;;;;;4.67;68.93;101206.19;4026747;29;20078;-60
2022/04/10 07:33:54;;;;;;;9.63;6.20;;;;;;;4.70;68.60;101204.66;4011160;29;20088;-61
2022/04/10 07:36:16;;;;;;;9.55;5.90;;;;;;;4.80;68.85;101202.53;4023895;29;20049;-58
2022/04/10 07:38:19;;;;;;;10.20;6.10;;;;;;;4.82;68.65;101204.38;4026608;29;20074;-60
2022/04/10 07:40:24;;;;;;;12.05;6.45;;;;;;;4.68;69.31;101218.28;4032191;29;20101;-57
2022/04/10 07:42:29;;;;;;;9.30;5.25;;;;;;;4.72;69.09;101212.47;4022255;29;20042;-60
2022/04/10 07:44:43;;;;;;;9.77;6.00;;;;;;;4.70;69.62;101224.38;4007459;29;20136;-60
2022/04/10 07:49:07;;;;;;;9.70;6.05;;;;;;;4.78;69.42;101220.50;4027590;29;20564;-61
2022/04/10 07:51:19;;;;;;;10.52;7.40;;;;;;;4.93;68.73;101222.06;4028627;29;20045;-59
2022/04/10 07:53:30;;;;;;;9.52;6.63;;;;;;;4.93;68.64;101237.53;4035254;29;20473;-58
2022/04/10 07:55:41;;;;;;;11.50;6.82;;;;;;;4.95;68.59;101241.97;4025196;29;20061;-61
2022/04/10 07:57:44;;;;;;;;;;;;;;;4.83;68.99;101239.66;4043216;29;20071;-59
2022/04/10 07:59:48;;;;;;;10.90;6.43;;;;;;;4.88;69.31;101235.59;4033455;29;20035;-60
2022/04/10 08:01:58;;;;;;;9.60;6.65;;;;;;;5.02;69.90;101237.97;4025743;29;20041;-62
2022/04/10 08:04:06;;;;;;;10.02;6.85;;;;;;;5.13;69.31;101229.09;4039692;29;20045;-67
2022/04/10 08:06:34;;;;;;;11.40;6.85;;;;;;;5.03;70.10;101229.44;4027785;29;20056;-70
2022/04/10 08:08:37;;;;;;;14.82;7.30;;;;;;;5.06;70.23;101242.47;4024569;29;20056;-70
2022/04/10 08:10:41;;;;;;;10.13;6.35;;;;;;;5.06;70.68;101242.47;4027181;29;20049;-71
2022/04/10 08:12:45;;;;;;;10.32;7.20;;;;;;;5.14;70.71;101243.75;4025426;29;20132;-72
2022/04/10 08:14:48;;;;;;;10.65;6.88;;;;;;;5.20;70.45;101244.03;4026222;29;20045;-71
2022/04/10 08:16:51;;;;;;;12.05;7.68;;;;;;;5.22;69.57;101242.41;4028719;29;20780;-69
2022/04/10 08:18:54;;;;;;;17.02;8.45;;;;;;;5.28;68.52;101246.09;4033672;29;20040;-65
2022/04/10 08:20:57;;;;;;;12.50;8.52;;;;;;;5.33;67.77;101244.63;4026852;29;20426;-66
2022/04/10 08:23:01;;;;;;;10.45;8.13;;;;;;;5.18;67.95;101253.41;4027519;29;20100;-68
2022/04/10 08:25:06;;;;;;;12.65;8.45;;;;;;;5.21;68.52;101245.81;4025455;29;20597;-74
2022/04/10 08:27:11;;;;;;;10.50;7.60;;;;;;;5.22;68.79;101257.88;4025655;29;20065;-74
2022/04/10 08:29:13;;;;;;;11.25;8.50;;;;;;;5.32;68.03;101259.22;4039760;29;20036;-71
2022/04/10 08:31:16;;;;;;;15.63;8.30;;;;;;;5.38;67.57;101256.06;4026024;29;20052;-71
2022/04/10 08:33:19;;;;;;;13.88;7.85;;;;;;;5.37;67.07;101262.00;4026143;29;20507;-71
2022/04/10 08:35:22;;;;;;;13.20;8.15;;;;;;;5.54;66.73;101261.13;4027747;29;20519;-68
2022/04/10 08:37:25;;;;;;;12.40;7.88;;;;;;;5.35;66.57;101268.81;4025727;29;20047;-69
2022/04/10 08:39:28;;;;;;;13.48;7.97;;;;;;;5.52;66.42;101278.22;4033518;29;20136;-67
2022/04/10 08:41:33;;;;;;;12.20;8.07;;;;;;;5.50;66.86;101276.38;4031762;29;20048;-66
2022/04/10 08:43:42;;;;;;;12.93;7.93;;;;;;;5.59;67.34;101263.91;4029017;29;20045;-66
2022/04/10 08:45:46;;;;;;;12.52;8.18;;;;;;;5.76;66.57;101262.13;4028223;29;20424;-73
2022/04/10 08:47:50;;;;;;;9.03;6.27;;;;;;;5.68;66.84;101264.38;4027677;29;20460;-71
2022/04/10 08:49:54;;;;;;;10.57;7.13;;;;;;;5.77;66.94;101272.53;4034328;29;20370;-69
2022/04/10 08:51:58;;;;;;;13.15;7.18;;;;;;;5.79;66.53;101263.97;4027608;29;20224;-75
2022/04/10 08:54:02;;;;;;;8.00;6.00;;;;;;;5.74;66.73;101267.22;4030835;29;20365;-65
2022/04/10 08:56:07;;;;;;;18.80;9.10;;;;;;;5.98;65.13;101265.75;4031736;29;20046;-66
2022/04/10 08:58:10;;;;;;;12.48;7.72;;;;;;;6.07;64.90;101264.44;4028538;29;20038;-68
2022/04/10 09:00:18;;;;;;;11.48;6.25;;;;;;;6.12;64.98;101264.69;4044105;29;20431;-74
2022/04/10 09:02:24;;;;;;;11.20;7.47;;;;;;;6.55;62.96;101265.69;4033403;29;20049;-72
2022/04/10 09:04:27;;;;;;;11.13;6.57;;;;;;;6.21;63.67;101277.13;4043527;29;20542;-68
2022/04/10 09:06:30;;;;;;;9.13;6.13;;;;;;;6.11;64.56;101280.97;4028233;29;20043;-70
2022/04/10 09:08:33;;;;;;;11.68;6.95;;;;;;;6.21;63.67;101282.28;4035082;29;20071;-71
2022/04/10 09:10:57;;;;;;;10.70;6.25;;;;;;;6.32;63.90;101285.34;4030249;29;20044;-65
2022/04/10 09:13:08;;;;;;;14.43;7.57;;;;;;;6.18;63.45;101287.31;4043096;29;20505;-61
2022/04/10 09:15:11;;;;;;;12.85;7.25;;;;;;;6.19;63.05;101291.66;4026614;29;20064;-63
2022/04/10 09:17:16;;;;;;;10.05;6.68;;;;;;;6.18;64.40;101280.44;4031003;29;20415;-65
2022/04/10 09:19:20;;;;;;;9.88;6.20;;;;;;;6.05;65.49;101279.00;4036610;29;20076;-70
2022/04/10 09:21:25;;;;;;;9.50;6.05;;;;;;;6.14;65.78;101268.22;4035696;29;20077;-67
2022/04/10 09:23:28;;;;;;;10.85;6.70;;;;;;;6.26;66.00;101262.72;4037875;29;20055;-61
2022/04/10 09:25:31;;;;;;;11.57;6.13;;;;;;;6.40;65.85;101263.34;4030183;29;20522;-64
2022/04/10 09:27:37;;;;;;;12.38;6.80;;;;;;;6.52;64.88;101263.84;4042622;29;20044;-71
2022/04/10 09:29:50;;;;;;;12.55;7.18;;;;;;;6.62;64.73;101265.16;4034076;29;20100;-61
2022/04/10 09:31:54;;;;;;;9.02;5.95;;;;;;;6.57;64.56;101274.38;4030725;29;20087;-61
2022/04/10 09:34:06;;;;;;;12.20;6.35;;;;;;;6.89;63.82;101264.56;4028449;29;20396;-62
2022/04/10 09:36:09;;;;;;;12.30;6.70;;;;;;;6.75;64.28;101267.44;4034305;29;20045;-61
2022/04/10 09:38:12;;;;;;;14.45;7.55;;;;;;;7.02;62.89;101265.94;4025565;29;20152;-63
2022/04/10 09:40:26;;;;;;;11.93;7.85;;;;;;;7.06;63.27;101273.03;4036242;29;20362;-59
2022/04/10 09:42:31;;;;;;;10.02;6.53;;;;;;;6.71;64.05;101269.84;4032021;29;20049;-67
2022/04/10 09:44:52;;;;;;;11.15;6.88;;;;;;;6.79;65.32;101268.44;4044373;29;20060;-64
2022/04/10 09:47:00;;;;;;;9.13;6.22;;;;;;;7.02;64.52;101268.53;4016708;29;20097;-60
2022/04/10 09:49:05;;;;;;;12.93;7.55;;;;;;;7.29;63.65;101272.25;4030240;29;20077;-61
2022/04/10 09:51:12;;;;;;;12.57;6.72;;;;;;;7.19;63.30;101267.53;4028317;29;20135;-64
2022/04/10 09:53:15;;;;;;;11.05;6.90;;;;;;;7.33;63.35;101274.16;4041579;29;20503;-64